JAL140 RJOO-RJTT
Flight info
| Callsign | JAL140 |
|---|---|
| Flight time | 0h 41m |
| Altitude | 35000 |
| Route | SHTLE Y71 XAC |
| Aircraft | A359/H-SDE2E3GHIJ3J4J5LM1ORWXY/LB1D1 |
Departure
| Time | 2026-05-01 14:29 |
|---|---|
| Airport | Osaka Itami International Airport (RJOO) |
Arrival
| Time | 2026-05-01 15:10 |
|---|---|
| Airport | Tokyo Haneda International Airport (RJTT) |
| Time | Latitude | Longitude | Altitude | Speed | Heading |
|---|---|---|---|---|---|
| 2026-05-01 14:06 | 34.79017 | 135.44025 | 56 ft | 0 kts | 22° |
| 2026-05-01 14:18 | 34.79006 | 135.44020 | 34 ft | 4 kts | 22° |
| 2026-05-01 14:19 | 34.78973 | 135.44003 | 52 ft | 4 kts | 24° |
| 2026-05-01 14:19 | 34.78949 | 135.43989 | 48 ft | 4 kts | 32° |
| 2026-05-01 14:19 | 34.78930 | 135.43972 | 48 ft | 4 kts | 45° |
| 2026-05-01 14:19 | 34.78915 | 135.43947 | 48 ft | 4 kts | 78° |
| 2026-05-01 14:20 | 34.78917 | 135.43918 | 48 ft | 4 kts | 123° |
| 2026-05-01 14:20 | 34.78953 | 135.43872 | 48 ft | 4 kts | 135° |
| 2026-05-01 14:20 | 34.78970 | 135.43850 | 48 ft | 1 kts | 135° |
| 2026-05-01 14:21 | 34.78971 | 135.43850 | 48 ft | 0 kts | 135° |
| 2026-05-01 14:23 | 34.78956 | 135.43863 | 48 ft | 6 kts | 148° |
| 2026-05-01 14:24 | 34.78894 | 135.43888 | 48 ft | 12 kts | 166° |
| 2026-05-01 14:24 | 34.78802 | 135.43929 | 48 ft | 15 kts | 150° |
| 2026-05-01 14:24 | 34.78722 | 135.44026 | 50 ft | 18 kts | 134° |
| 2026-05-01 14:24 | 34.78628 | 135.44139 | 50 ft | 20 kts | 136° |
| 2026-05-01 14:25 | 34.78523 | 135.44264 | 48 ft | 22 kts | 135° |
| 2026-05-01 14:25 | 34.78382 | 135.44338 | 49 ft | 23 kts | 184° |
| 2026-05-01 14:25 | 34.78218 | 135.44334 | 53 ft | 24 kts | 176° |
| 2026-05-01 14:25 | 34.78086 | 135.44443 | 49 ft | 25 kts | 135° |
| 2026-05-01 14:26 | 34.77959 | 135.44598 | 51 ft | 27 kts | 134° |
| 2026-05-01 14:26 | 34.77674 | 135.44922 | 48 ft | 29 kts | 151° |
| 2026-05-01 14:26 | 34.77572 | 135.44979 | 50 ft | 12 kts | 156° |
| 2026-05-01 14:27 | 34.77524 | 135.45005 | 53 ft | 0 kts | 155° |
| 2026-05-01 14:27 | 34.77523 | 135.45006 | 53 ft | 1 kts | 155° |
| 2026-05-01 14:28 | 34.77461 | 135.44896 | 50 ft | 15 kts | 311° |
| 2026-05-01 14:28 | 34.77545 | 135.44792 | 50 ft | 23 kts | 315° |
| 2026-05-01 14:28 | 34.77829 | 135.44446 | 48 ft | 94 kts | 315° |
| 2026-05-01 14:28 | 34.78449 | 135.43699 | 61 ft | 154 kts | 315° |
| 2026-05-01 14:29 | 34.79230 | 135.42834 | 875 ft | 147 kts | 311° |
| 2026-05-01 14:29 | 34.79988 | 135.42040 | 1797 ft | 141 kts | 313° |
| 2026-05-01 14:30 | 34.79838 | 135.39186 | 3842 ft | 180 kts | 212° |
| 2026-05-01 14:30 | 34.78483 | 135.39099 | 4272 ft | 212 kts | 177° |
| 2026-05-01 14:30 | 34.77002 | 135.39782 | 4546 ft | 244 kts | 150° |
| 2026-05-01 14:31 | 34.74778 | 135.43249 | 5348 ft | 280 kts | 103° |
| 2026-05-01 14:31 | 34.74403 | 135.45604 | 5918 ft | 287 kts | 87° |
| 2026-05-01 14:31 | 34.74339 | 135.48044 | 6694 ft | 291 kts | 83° |
| 2026-05-01 14:31 | 34.74366 | 135.50523 | 7463 ft | 297 kts | 81° |
| 2026-05-01 14:32 | 34.74440 | 135.53028 | 8304 ft | 303 kts | 81° |
| 2026-05-01 14:32 | 34.74540 | 135.55607 | 9175 ft | 309 kts | 81° |
| 2026-05-01 14:32 | 34.74653 | 135.58239 | 10036 ft | 314 kts | 81° |
| 2026-05-01 14:32 | 34.74780 | 135.60958 | 10595 ft | 332 kts | 81° |
| 2026-05-01 14:33 | 34.74923 | 135.63857 | 10995 ft | 355 kts | 81° |
| 2026-05-01 14:33 | 34.75075 | 135.66941 | 11384 ft | 376 kts | 82° |
| 2026-05-01 14:33 | 34.75228 | 135.70172 | 11983 ft | 388 kts | 82° |
| 2026-05-01 14:33 | 34.75380 | 135.73479 | 12709 ft | 395 kts | 82° |
| 2026-05-01 14:34 | 34.75533 | 135.76793 | 13498 ft | 400 kts | 82° |
| 2026-05-01 14:34 | 34.75688 | 135.80172 | 14389 ft | 398 kts | 82° |
| 2026-05-01 14:34 | 34.75840 | 135.83508 | 15449 ft | 393 kts | 82° |
| 2026-05-01 14:34 | 34.75990 | 135.86822 | 16277 ft | 394 kts | 82° |
| 2026-05-01 14:35 | 34.76147 | 135.90167 | 16987 ft | 399 kts | 82° |
| 2026-05-01 14:35 | 34.76306 | 135.93563 | 17672 ft | 405 kts | 82° |
| 2026-05-01 14:35 | 34.76465 | 135.96997 | 18356 ft | 409 kts | 82° |
| 2026-05-01 14:35 | 34.76624 | 136.00455 | 19074 ft | 411 kts | 82° |
| 2026-05-01 14:36 | 34.76781 | 136.03898 | 19685 ft | 416 kts | 82° |
| 2026-05-01 14:36 | 34.77006 | 136.07427 | 20302 ft | 421 kts | 80° |
| 2026-05-01 14:36 | 34.77281 | 136.10990 | 20947 ft | 426 kts | 79° |
| 2026-05-01 14:36 | 34.77556 | 136.14591 | 21590 ft | 430 kts | 79° |
| 2026-05-01 14:37 | 34.77828 | 136.18239 | 22238 ft | 435 kts | 80° |
| 2026-05-01 14:37 | 34.78096 | 136.21917 | 22893 ft | 439 kts | 80° |
| 2026-05-01 14:37 | 34.78364 | 136.25638 | 23469 ft | 444 kts | 80° |
| 2026-05-01 14:37 | 34.78634 | 136.29406 | 23966 ft | 449 kts | 80° |
| 2026-05-01 14:38 | 34.78899 | 136.33156 | 24481 ft | 453 kts | 80° |
| 2026-05-01 14:38 | 34.79170 | 136.36993 | 25022 ft | 458 kts | 80° |
| 2026-05-01 14:38 | 34.79442 | 136.40875 | 25484 ft | 463 kts | 80° |
| 2026-05-01 14:38 | 34.79714 | 136.44791 | 26000 ft | 467 kts | 80° |
| 2026-05-01 14:39 | 34.79988 | 136.48743 | 26503 ft | 471 kts | 80° |
| 2026-05-01 14:39 | 34.80263 | 136.52729 | 27009 ft | 475 kts | 80° |
| 2026-05-01 14:39 | 34.80539 | 136.56744 | 27513 ft | 479 kts | 81° |
| 2026-05-01 14:39 | 34.80817 | 136.60802 | 27996 ft | 485 kts | 80° |
| 2026-05-01 14:40 | 34.81097 | 136.64916 | 28452 ft | 489 kts | 80° |
| 2026-05-01 14:40 | 34.81373 | 136.68999 | 28944 ft | 492 kts | 80° |
| 2026-05-01 14:40 | 34.81653 | 136.73159 | 29444 ft | 496 kts | 80° |
| 2026-05-01 14:40 | 34.81934 | 136.77356 | 29922 ft | 499 kts | 80° |
| 2026-05-01 14:41 | 34.82216 | 136.81584 | 30268 ft | 503 kts | 80° |
| 2026-05-01 14:41 | 34.82496 | 136.85824 | 30799 ft | 502 kts | 80° |
| 2026-05-01 14:41 | 34.82773 | 136.90053 | 31270 ft | 501 kts | 80° |
| 2026-05-01 14:41 | 34.82948 | 136.94307 | 31703 ft | 506 kts | 86° |
| 2026-05-01 14:42 | 34.82713 | 136.98597 | 32205 ft | 509 kts | 92° |
| 2026-05-01 14:42 | 34.82306 | 137.02878 | 32698 ft | 509 kts | 94° |
| 2026-05-01 14:42 | 34.81835 | 137.07096 | 33150 ft | 510 kts | 94° |
| 2026-05-01 14:42 | 34.81329 | 137.11364 | 33584 ft | 510 kts | 94° |
| 2026-05-01 14:43 | 34.80819 | 137.15629 | 33965 ft | 509 kts | 95° |
| 2026-05-01 14:43 | 34.80317 | 137.19885 | 34359 ft | 508 kts | 95° |
| 2026-05-01 14:43 | 34.79823 | 137.24137 | 34586 ft | 510 kts | 95° |
| 2026-05-01 14:44 | 34.78838 | 137.32810 | 34691 ft | 526 kts | 95° |
| 2026-05-01 14:44 | 34.77831 | 137.41712 | 34704 ft | 544 kts | 95° |
| 2026-05-01 14:44 | 34.77308 | 137.46309 | 34695 ft | 554 kts | 95° |
| 2026-05-01 14:45 | 34.75671 | 137.60526 | 34708 ft | 575 kts | 96° |
| 2026-05-01 14:46 | 34.74554 | 137.70142 | 34683 ft | 574 kts | 96° |
| 2026-05-01 14:46 | 34.73169 | 137.84532 | 34658 ft | 574 kts | 94° |
| 2026-05-01 14:47 | 34.72288 | 137.94167 | 34623 ft | 573 kts | 95° |
| 2026-05-01 14:48 | 34.71461 | 138.08648 | 34614 ft | 572 kts | 88° |
| 2026-05-01 14:48 | 34.71483 | 138.23076 | 34022 ft | 570 kts | 87° |
| 2026-05-01 14:49 | 34.71536 | 138.32763 | 32242 ft | 575 kts | 86° |
| 2026-05-01 14:49 | 34.71566 | 138.42502 | 30447 ft | 578 kts | 86° |
| 2026-05-01 14:50 | 34.71577 | 138.48991 | 29136 ft | 582 kts | 87° |
| 2026-05-01 14:50 | 34.71578 | 138.62003 | 27082 ft | 571 kts | 87° |
| 2026-05-01 14:51 | 34.71573 | 138.66810 | 26439 ft | 565 kts | 88° |
| 2026-05-01 14:51 | 34.71561 | 138.76197 | 25370 ft | 549 kts | 88° |
| 2026-05-01 14:52 | 34.71543 | 138.85212 | 23806 ft | 516 kts | 88° |
| 2026-05-01 14:52 | 34.71528 | 138.89512 | 23183 ft | 508 kts | 89° |
| 2026-05-01 14:52 | 34.71492 | 138.97999 | 21909 ft | 501 kts | 89° |
| 2026-05-01 14:53 | 34.71472 | 139.02234 | 21626 ft | 503 kts | 89° |
| 2026-05-01 14:53 | 34.71451 | 139.06499 | 21610 ft | 504 kts | 89° |
| 2026-05-01 14:53 | 34.71431 | 139.10756 | 21611 ft | 502 kts | 89° |
| 2026-05-01 14:53 | 34.71408 | 139.14963 | 21499 ft | 494 kts | 89° |
| 2026-05-01 14:54 | 34.71383 | 139.19116 | 20745 ft | 490 kts | 89° |
| 2026-05-01 14:54 | 34.71357 | 139.23258 | 19887 ft | 489 kts | 89° |
| 2026-05-01 14:54 | 34.71330 | 139.27374 | 19189 ft | 485 kts | 89° |
| 2026-05-01 14:54 | 34.71302 | 139.31401 | 18547 ft | 480 kts | 89° |
| 2026-05-01 14:55 | 34.71271 | 139.35386 | 17489 ft | 466 kts | 89° |
| 2026-05-01 14:55 | 34.71338 | 139.39308 | 16461 ft | 464 kts | 81° |
| 2026-05-01 14:55 | 34.72151 | 139.43084 | 16202 ft | 459 kts | 62° |
| 2026-05-01 14:55 | 34.73624 | 139.46469 | 15948 ft | 449 kts | 54° |
| 2026-05-01 14:56 | 34.75212 | 139.49704 | 15790 ft | 438 kts | 53° |
| 2026-05-01 14:56 | 34.76945 | 139.52627 | 15596 ft | 415 kts | 41° |
| 2026-05-01 14:56 | 34.79034 | 139.54882 | 15333 ft | 390 kts | 27° |
| 2026-05-01 14:56 | 34.81276 | 139.56518 | 15129 ft | 373 kts | 22° |
| 2026-05-01 14:57 | 34.83519 | 139.57986 | 14924 ft | 356 kts | 21° |
| 2026-05-01 14:57 | 34.87641 | 139.60625 | 14112 ft | 319 kts | 20° |
| 2026-05-01 14:57 | 34.89596 | 139.61855 | 13406 ft | 313 kts | 20° |
| 2026-05-01 14:58 | 34.91521 | 139.63060 | 12623 ft | 309 kts | 19° |
| 2026-05-01 14:58 | 34.93418 | 139.64250 | 11830 ft | 305 kts | 20° |
| 2026-05-01 14:58 | 34.95297 | 139.65429 | 11033 ft | 302 kts | 20° |
| 2026-05-01 14:58 | 34.97134 | 139.66584 | 10300 ft | 300 kts | 20° |
| 2026-05-01 14:59 | 34.98953 | 139.67734 | 10089 ft | 295 kts | 20° |
| 2026-05-01 14:59 | 35.00774 | 139.68878 | 9874 ft | 294 kts | 20° |
| 2026-05-01 14:59 | 35.02588 | 139.70018 | 9470 ft | 292 kts | 19° |
| 2026-05-01 14:59 | 35.04386 | 139.71155 | 9068 ft | 290 kts | 19° |
| 2026-05-01 15:00 | 35.07941 | 139.73394 | 8413 ft | 284 kts | 21° |
| 2026-05-01 15:00 | 35.09680 | 139.74497 | 8055 ft | 280 kts | 20° |
| 2026-05-01 15:00 | 35.11416 | 139.75589 | 7738 ft | 282 kts | 22° |
| 2026-05-01 15:01 | 35.13137 | 139.76674 | 7402 ft | 282 kts | 22° |
| 2026-05-01 15:01 | 35.14877 | 139.77777 | 7064 ft | 281 kts | 22° |
| 2026-05-01 15:01 | 35.16611 | 139.78878 | 6733 ft | 280 kts | 20° |
| 2026-05-01 15:01 | 35.18343 | 139.79966 | 6384 ft | 280 kts | 23° |
| 2026-05-01 15:02 | 35.20116 | 139.80857 | 6095 ft | 271 kts | 8° |
| 2026-05-01 15:02 | 35.20743 | 139.80975 | 6032 ft | 268 kts | 0° |
| 2026-05-01 15:02 | 35.23658 | 139.80405 | 5482 ft | 251 kts | 340° |
| 2026-05-01 15:02 | 35.25314 | 139.79869 | 5313 ft | 240 kts | 339° |
| 2026-05-01 15:03 | 35.26847 | 139.79381 | 5102 ft | 222 kts | 338° |
| 2026-05-01 15:03 | 35.28295 | 139.78923 | 4855 ft | 209 kts | 341° |
| 2026-05-01 15:03 | 35.29672 | 139.78490 | 4509 ft | 202 kts | 342° |
| 2026-05-01 15:03 | 35.31051 | 139.78301 | 4138 ft | 198 kts | 359° |
| 2026-05-01 15:04 | 35.32396 | 139.78686 | 3785 ft | 203 kts | 18° |
| 2026-05-01 15:04 | 35.33612 | 139.79586 | 3469 ft | 205 kts | 30° |
| 2026-05-01 15:04 | 35.34759 | 139.80627 | 3167 ft | 205 kts | 31° |
| 2026-05-01 15:04 | 35.35891 | 139.81664 | 2922 ft | 200 kts | 34° |
| 2026-05-01 15:05 | 35.36990 | 139.82673 | 2765 ft | 195 kts | 34° |
| 2026-05-01 15:05 | 35.38064 | 139.83649 | 2660 ft | 194 kts | 33° |
| 2026-05-01 15:05 | 35.39147 | 139.84633 | 2572 ft | 194 kts | 33° |
| 2026-05-01 15:05 | 35.40230 | 139.85618 | 2483 ft | 195 kts | 31° |
| 2026-05-01 15:06 | 35.41355 | 139.86534 | 2377 ft | 193 kts | 22° |
| 2026-05-01 15:06 | 35.42629 | 139.86910 | 2307 ft | 186 kts | 358° |
| 2026-05-01 15:06 | 35.43908 | 139.86867 | 2194 ft | 183 kts | 347° |
| 2026-05-01 15:06 | 35.45147 | 139.86565 | 2077 ft | 181 kts | 341° |
| 2026-05-01 15:07 | 35.46256 | 139.85981 | 1861 ft | 168 kts | 321° |
| 2026-05-01 15:07 | 35.47237 | 139.85250 | 1632 ft | 163 kts | 325° |
| 2026-05-01 15:07 | 35.48206 | 139.84588 | 1422 ft | 159 kts | 323° |
| 2026-05-01 15:07 | 35.49151 | 139.83917 | 1199 ft | 155 kts | 323° |
| 2026-05-01 15:08 | 35.50069 | 139.83268 | 996 ft | 149 kts | 324° |
| 2026-05-01 15:08 | 35.50956 | 139.82642 | 799 ft | 146 kts | 327° |
| 2026-05-01 15:08 | 35.51821 | 139.82031 | 621 ft | 141 kts | 326° |
| 2026-05-01 15:08 | 35.52642 | 139.81449 | 415 ft | 133 kts | 328° |
| 2026-05-01 15:09 | 35.53449 | 139.80879 | 262 ft | 136 kts | 327° |
| 2026-05-01 15:09 | 35.54271 | 139.80294 | 86 ft | 137 kts | 329° |
| 2026-05-01 15:09 | 35.55044 | 139.79747 | 35 ft | 112 kts | 329° |
| 2026-05-01 15:09 | 35.55582 | 139.79366 | 33 ft | 67 kts | 330° |
| 2026-05-01 15:10 | 35.55877 | 139.79158 | 33 ft | 42 kts | 330° |
| 2026-05-01 15:10 | 35.56147 | 139.78797 | 29 ft | 12 kts | 265° |
| 2026-05-01 15:10 | 35.56160 | 139.78708 | 30 ft | 11 kts | 314° |
| 2026-05-01 15:11 | 35.56230 | 139.78655 | 30 ft | 13 kts | 330° |
| 2026-05-01 15:11 | 35.56387 | 139.78503 | 32 ft | 16 kts | 273° |
| 2026-05-01 15:11 | 35.56343 | 139.78376 | 31 ft | 17 kts | 240° |
| 2026-05-01 15:12 | 35.56277 | 139.78242 | 31 ft | 20 kts | 239° |
| 2026-05-01 15:12 | 35.56123 | 139.77925 | 31 ft | 23 kts | 240° |
| 2026-05-01 15:12 | 35.56038 | 139.77744 | 30 ft | 26 kts | 240° |
| 2026-05-01 15:13 | 35.55719 | 139.77489 | 28 ft | 21 kts | 150° |
| 2026-05-01 15:14 | 35.55445 | 139.77681 | 28 ft | 25 kts | 150° |
| 2026-05-01 15:14 | 35.55290 | 139.77790 | 28 ft | 26 kts | 149° |
| 2026-05-01 15:14 | 35.55007 | 139.77993 | 29 ft | 12 kts | 150° |
| 2026-05-01 15:15 | 35.54902 | 139.78170 | 29 ft | 14 kts | 103° |
| 2026-05-01 15:15 | 35.54889 | 139.78238 | 29 ft | 0 kts | 102° |